PAMD METAR and TAF weather

Enter ICAO airport designator
Station Type Date Time Source
PAMD METAR 2021/03/02 12:51 UTC NOAA

PAMD 021251Z AUTO 28019G24KT 10SM CLR 01/M02 A2904 RMK AO2 SLP823 T00061017 FZRANO


Station Type Date Time Source
PAMD Decoded METAR 2021/03/02 12:51 UTC NOAA

Middleton Island, Middleton Island Airport, AK, United States (PAMD) 59-26N 146-18W 14M
Mar 02, 2021 - 07:51 AM EST / 2021.03.02 1251 UTC
Wind: from the W (280 degrees) at 22 MPH (19 KT) gusting to 28 MPH (24 KT):0
Visibility: 10 mile(s):0
Sky conditions: clear
Temperature: 33.1 F (0.6 C)
Windchill: 21 F (-6 C):1
Dew Point: 28.9 F (-1.7 C)
Relative Humidity: 84%
Pressure (altimeter): 29.04 in. Hg (983 hPa)
ob: PAMD 021251Z AUTO 28019G24KT 10SM CLR 01/M02 A2904 RMK AO2 SLP823 T00061017 FZRANO
cycle: 13

Station Type Date Time Source
PAMD TAF UTC NOAA

Error!

Example: see airport list